KRNH/RNH METAR and TAF weather

Enter ICAO airport designator
Station Type Date Time Source
KRNH METAR 2022/11/30 16:35 UTC NOAA

KRNH 301635Z AUTO 27016G22KT 10SM SCT022 OVC030 M08/M11 A2997 RMK AO2 T10851107


Station Type Date Time Source
KRNH Decoded METAR 2022/11/30 16:35 UTC NOAA

New Richmond, New Richmond Municipal Airport, WI, United States (KRNH) 45-08-54N 092-32-17W
Nov 30, 2022 - 11:35 AM EST / 2022.11.30 1635 UTC
Wind: from the W (270 degrees) at 18 MPH (16 KT) gusting to 25 MPH (22 KT):0
Visibility: 10 mile(s):0
Sky conditions: overcast
Temperature: 16.7 F (-8.5 C)
Windchill: 1 F (-17 C):1
Dew Point: 12.7 F (-10.7 C)
Relative Humidity: 84%
Pressure (altimeter): 29.97 in. Hg (1014 hPa)
ob: KRNH 301635Z AUTO 27016G22KT 10SM SCT022 OVC030 M08/M11 A2997 RMK AO2 T10851107
cycle: 16

Station Type Date Time Source
KRNH TAF 2022/11/30 12:22 UTC NOAA

TAF KRNH 301120Z 3012/0112 27018G28KT P6SM FEW015 BKN025 BKN040
TEMPO 3012/3016 5SM -SN
FM302100 28015G22KT P6SM BKN040
FM010200 27006KT P6SM SCT050

Example: see airport list